CheckWX is a tool to help pilots better visualize weather data.  It is not intended as a substitute for an official pre-flight weather briefing.

20:32:03 UTC

LEBZ TAF
Badajoz Airport
Badajoz, Spain
TAF LEBZ 221700Z 2218/2318 08009KT CAVOK TX24/2316Z TN05/2307Z PROB30 TEMPO 2312/2316 09015G25KT

Mar-22@
18:00 UTC

Mar-22 @ 18:00 UTC

Mar-23@
18:00 UTC

Mar-23 @ 18:00 UTC

TAF LEBZ 221700Z 2218/2318 08009KT CAVOK TX24/2316Z TN05/2307Z
Wind
  • 080° at 9 KTS
Cloud Levels
  • No significant clouds

Mar-23@
12:00 UTC

Mar-23 @ 12:00 UTC

Mar-23@
16:00 UTC

Mar-23 @ 16:00 UTC

PROB30 TEMPO 2312/2316 09015G25KT

Temporary - 30% Likelihood

Temporary - 30% Likelihood during this time.

Wind
  • 090° at 15 KTS
  • {Gusting to 25 KTS